Terminal Aerodrome Forecast
Issued by NWS Blacksburg, VA

Current Version | Previous Version | Graphics & Text | Print | Product List | Glossary On
Versions: 1 2 3 4 5 6 7 8 9 10 11 12 13 14 15 16 17 18 19 20 21 22 23 24 25
000
FTUS41 KRNK 231145
TAFBLF
TAF
KBLF 231145Z 2312/2412 15011G25KT P6SM OVC022
     FM231700 12015G24KT 5SM -RA OVC015
     FM232300 12018G27KT 5SM -RA BKN008
     FM240700 11020G28KT P6SM -RA OVC018=

USA.gov is the U.S. government's official web portal to all federal, state and local government web resources and services.